sensor_id;sensor_type;location;lat;lon;timestamp;temperature;humidity
58469;DHT22;44257;44.804;10.220;2023-07-20T00:01:29;25.40;92.70
58469;DHT22;44257;44.804;10.220;2023-07-20T00:03:54;25.40;92.90
58469;DHT22;44257;44.804;10.220;2023-07-20T00:06:21;25.30;93.20
58469;DHT22;44257;44.804;10.220;2023-07-20T00:08:48;25.30;93.00
58469;DHT22;44257;44.804;10.220;2023-07-20T00:11:13;25.20;92.90
58469;DHT22;44257;44.804;10.220;2023-07-20T00:13:40;25.20;92.90
58469;DHT22;44257;44.804;10.220;2023-07-20T00:16:06;25.20;93.20
58469;DHT22;44257;44.804;10.220;2023-07-20T00:18:33;25.20;93.20
58469;DHT22;44257;44.804;10.220;2023-07-20T00:21:01;25.20;93.00
58469;DHT22;44257;44.804;10.220;2023-07-20T00:23:27;25.10;93.20
58469;DHT22;44257;44.804;10.220;2023-07-20T00:25:54;25.10;93.30
58469;DHT22;44257;44.804;10.220;2023-07-20T00:28:20;25.00;93.40
58469;DHT22;44257;44.804;10.220;2023-07-20T00:30:48;24.90;93.50
58469;DHT22;44257;44.804;10.220;2023-07-20T00:33:17;24.90;93.70
58469;DHT22;44257;44.804;10.220;2023-07-20T00:35:43;24.90;93.70
58469;DHT22;44257;44.804;10.220;2023-07-20T00:38:09;24.90;94.00
58469;DHT22;44257;44.804;10.220;2023-07-20T00:40:41;24.80;94.20
58469;DHT22;44257;44.804;10.220;2023-07-20T00:43:07;24.80;94.30
58469;DHT22;44257;44.804;10.220;2023-07-20T00:45:34;24.80;94.70
58469;DHT22;44257;44.804;10.220;2023-07-20T00:48:02;24.80;95.50
58469;DHT22;44257;44.804;10.220;2023-07-20T00:50:30;24.80;96.20
58469;DHT22;44257;44.804;10.220;2023-07-20T00:52:56;24.70;96.90
58469;DHT22;44257;44.804;10.220;2023-07-20T00:55:23;24.60;98.10
58469;DHT22;44257;44.804;10.220;2023-07-20T00:57:50;24.50;98.90
58469;DHT22;44257;44.804;10.220;2023-07-20T01:00:16;24.40;99.70
58469;DHT22;44257;44.804;10.220;2023-07-20T01:02:44;24.40;99.90
58469;DHT22;44257;44.804;10.220;2023-07-20T01:05:10;24.30;99.90
58469;DHT22;44257;44.804;10.220;2023-07-20T01:07:59;24.30;99.90
58469;DHT22;44257;44.804;10.220;2023-07-20T01:10:36;24.30;99.90
58469;DHT22;44257;44.804;10.220;2023-07-20T01:13:06;24.30;99.90
58469;DHT22;44257;44.804;10.220;2023-07-20T01:15:35;24.30;99.90
58469;DHT22;44257;44.804;10.220;2023-07-20T01:18:01;24.30;99.90
58469;DHT22;44257;44.804;10.220;2023-07-20T01:20:31;24.30;99.90
58469;DHT22;44257;44.804;10.220;2023-07-20T01:31:26;24.10;99.90
58469;DHT22;44257;44.804;10.220;2023-07-20T01:33:56;24.00;99.90
58469;DHT22;44257;44.804;10.220;2023-07-20T01:36:24;23.90;99.90
58469;DHT22;44257;44.804;10.220;2023-07-20T01:38:52;23.80;99.90
58469;DHT22;44257;44.804;10.220;2023-07-20T01:41:19;23.80;99.90
58469;DHT22;44257;44.804;10.220;2023-07-20T01:43:46;23.80;99.90
58469;DHT22;44257;44.804;10.220;2023-07-20T01:46:11;23.70;99.90
58469;DHT22;44257;44.804;10.220;2023-07-20T01:48:37;23.60;99.90
58469;DHT22;44257;44.804;10.220;2023-07-20T01:51:03;23.60;99.90
58469;DHT22;44257;44.804;10.220;2023-07-20T01:53:29;23.50;99.90
58469;DHT22;44257;44.804;10.220;2023-07-20T01:55:56;23.50;99.90
58469;DHT22;44257;44.804;10.220;2023-07-20T01:58:22;23.50;99.90
58469;DHT22;44257;44.804;10.220;2023-07-20T02:00:48;23.40;99.90
58469;DHT22;44257;44.804;10.220;2023-07-20T02:03:14;23.40;99.90
58469;DHT22;44257;44.804;10.220;2023-07-20T02:05:42;23.40;99.90
58469;DHT22;44257;44.804;10.220;2023-07-20T02:08:09;23.30;99.90
58469;DHT22;44257;44.804;10.220;2023-07-20T02:10:35;23.30;99.90
58469;DHT22;44257;44.804;10.220;2023-07-20T02:13:01;23.30;99.90
58469;DHT22;44257;44.804;10.220;2023-07-20T02:15:27;23.20;99.90
58469;DHT22;44257;44.804;10.220;2023-07-20T02:17:54;23.10;99.90
58469;DHT22;44257;44.804;10.220;2023-07-20T02:20:20;23.10;99.90
58469;DHT22;44257;44.804;10.220;2023-07-20T02:22:46;23.10;99.90
58469;DHT22;44257;44.804;10.220;2023-07-20T02:25:12;23.10;99.90
58469;DHT22;44257;44.804;10.220;2023-07-20T02:27:38;23.10;99.90
58469;DHT22;44257;44.804;10.220;2023-07-20T02:30:05;23.10;99.90
58469;DHT22;44257;44.804;10.220;2023-07-20T02:32:31;23.10;99.90
58469;DHT22;44257;44.804;10.220;2023-07-20T02:34:58;23.10;99.90
58469;DHT22;44257;44.804;10.220;2023-07-20T02:37:24;23.10;99.90
58469;DHT22;44257;44.804;10.220;2023-07-20T02:39:50;23.10;99.90
58469;DHT22;44257;44.804;10.220;2023-07-20T02:42:16;23.00;99.90
58469;DHT22;44257;44.804;10.220;2023-07-20T02:44:42;23.00;99.90
58469;DHT22;44257;44.804;10.220;2023-07-20T02:47:08;22.90;99.90
58469;DHT22;44257;44.804;10.220;2023-07-20T02:49:34;22.90;99.90
58469;DHT22;44257;44.804;10.220;2023-07-20T02:51:59;22.80;99.90
58469;DHT22;44257;44.804;10.220;2023-07-20T02:54:25;22.80;99.90
58469;DHT22;44257;44.804;10.220;2023-07-20T02:56:51;22.80;99.90
58469;DHT22;44257;44.804;10.220;2023-07-20T02:59:17;22.80;99.90
58469;DHT22;44257;44.804;10.220;2023-07-20T03:01:43;22.70;99.90
58469;DHT22;44257;44.804;10.220;2023-07-20T03:04:08;22.70;99.90
58469;DHT22;44257;44.804;10.220;2023-07-20T03:06:37;22.70;99.90
58469;DHT22;44257;44.804;10.220;2023-07-20T03:09:03;22.70;99.90
58469;DHT22;44257;44.804;10.220;2023-07-20T03:11:32;22.70;99.90
58469;DHT22;44257;44.804;10.220;2023-07-20T03:13:58;22.70;99.90
58469;DHT22;44257;44.804;10.220;2023-07-20T03:16:24;22.80;99.90
58469;DHT22;44257;44.804;10.220;2023-07-20T03:18:52;22.80;99.90
58469;DHT22;44257;44.804;10.220;2023-07-20T03:21:18;22.70;99.90
58469;DHT22;44257;44.804;10.220;2023-07-20T03:23:43;22.70;99.90
58469;DHT22;44257;44.804;10.220;2023-07-20T03:26:10;22.80;99.90
58469;DHT22;44257;44.804;10.220;2023-07-20T03:28:37;22.80;99.90
58469;DHT22;44257;44.804;10.220;2023-07-20T03:31:04;22.80;99.90
58469;DHT22;44257;44.804;10.220;2023-07-20T03:33:33;22.80;99.90
58469;DHT22;44257;44.804;10.220;2023-07-20T03:35:59;22.80;99.90
58469;DHT22;44257;44.804;10.220;2023-07-20T03:38:26;22.70;99.90
58469;DHT22;44257;44.804;10.220;2023-07-20T03:40:57;22.70;99.90
58469;DHT22;44257;44.804;10.220;2023-07-20T03:43:24;22.60;99.90
58469;DHT22;44257;44.804;10.220;2023-07-20T03:45:51;22.60;99.90
58469;DHT22;44257;44.804;10.220;2023-07-20T03:48:18;22.60;99.90
58469;DHT22;44257;44.804;10.220;2023-07-20T03:50:45;22.60;99.90
58469;DHT22;44257;44.804;10.220;2023-07-20T03:53:12;22.60;99.90
58469;DHT22;44257;44.804;10.220;2023-07-20T03:55:37;22.50;99.90
58469;DHT22;44257;44.804;10.220;2023-07-20T03:58:03;22.40;99.90
58469;DHT22;44257;44.804;10.220;2023-07-20T04:00:29;22.40;99.90
58469;DHT22;44257;44.804;10.220;2023-07-20T04:02:55;22.40;99.90
58469;DHT22;44257;44.804;10.220;2023-07-20T04:05:21;22.40;99.90
58469;DHT22;44257;44.804;10.220;2023-07-20T04:07:47;22.30;99.90
58469;DHT22;44257;44.804;10.220;2023-07-20T04:10:13;22.30;99.90
58469;DHT22;44257;44.804;10.220;2023-07-20T04:12:39;22.30;99.90
58469;DHT22;44257;44.804;10.220;2023-07-20T04:15:05;22.20;99.90
58469;DHT22;44257;44.804;10.220;2023-07-20T04:17:32;22.10;99.90
58469;DHT22;44257;44.804;10.220;2023-07-20T04:19:58;22.10;99.90
58469;DHT22;44257;44.804;10.220;2023-07-20T04:22:24;22.10;99.90
58469;DHT22;44257;44.804;10.220;2023-07-20T04:24:50;22.20;99.90
58469;DHT22;44257;44.804;10.220;2023-07-20T04:27:16;22.30;99.90
58469;DHT22;44257;44.804;10.220;2023-07-20T04:29:42;22.40;99.90
58469;DHT22;44257;44.804;10.220;2023-07-20T04:32:08;22.50;99.90
58469;DHT22;44257;44.804;10.220;2023-07-20T04:34:35;22.60;99.90
58469;DHT22;44257;44.804;10.220;2023-07-20T04:37:04;22.70;99.90
58469;DHT22;44257;44.804;10.220;2023-07-20T04:39:30;22.80;99.90
58469;DHT22;44257;44.804;10.220;2023-07-20T04:41:57;22.80;99.90
58469;DHT22;44257;44.804;10.220;2023-07-20T04:44:24;22.90;99.90
58469;DHT22;44257;44.804;10.220;2023-07-20T04:46:50;23.00;99.90
58469;DHT22;44257;44.804;10.220;2023-07-20T04:49:16;23.00;99.90
58469;DHT22;44257;44.804;10.220;2023-07-20T04:51:44;23.00;99.90
58469;DHT22;44257;44.804;10.220;2023-07-20T04:54:10;23.00;99.90
58469;DHT22;44257;44.804;10.220;2023-07-20T04:56:37;23.00;99.90
58469;DHT22;44257;44.804;10.220;2023-07-20T04:59:06;23.10;99.90
58469;DHT22;44257;44.804;10.220;2023-07-20T05:01:32;23.20;99.90
58469;DHT22;44257;44.804;10.220;2023-07-20T05:03:57;23.30;99.90
58469;DHT22;44257;44.804;10.220;2023-07-20T05:06:23;23.40;99.90
58469;DHT22;44257;44.804;10.220;2023-07-20T05:08:49;23.60;99.90
58469;DHT22;44257;44.804;10.220;2023-07-20T05:11:15;23.70;99.90
58469;DHT22;44257;44.804;10.220;2023-07-20T05:13:41;23.90;99.90
58469;DHT22;44257;44.804;10.220;2023-07-20T05:16:07;24.30;99.90
58469;DHT22;44257;44.804;10.220;2023-07-20T05:18:33;24.80;99.90
58469;DHT22;44257;44.804;10.220;2023-07-20T05:20:59;25.50;99.90
58469;DHT22;44257;44.804;10.220;2023-07-20T05:23:25;26.10;99.90
58469;DHT22;44257;44.804;10.220;2023-07-20T05:25:58;26.60;99.90
58469;DHT22;44257;44.804;10.220;2023-07-20T05:28:24;27.30;99.90
58469;DHT22;44257;44.804;10.220;2023-07-20T05:30:51;27.80;99.90
58469;DHT22;44257;44.804;10.220;2023-07-20T05:33:22;28.20;99.90
58469;DHT22;44257;44.804;10.220;2023-07-20T05:35:48;28.60;99.90
58469;DHT22;44257;44.804;10.220;2023-07-20T05:38:14;28.90;99.90
58469;DHT22;44257;44.804;10.220;2023-07-20T05:40:41;29.30;99.90
58469;DHT22;44257;44.804;10.220;2023-07-20T05:43:07;29.60;99.90
58469;DHT22;44257;44.804;10.220;2023-07-20T05:45:33;29.90;99.90
58469;DHT22;44257;44.804;10.220;2023-07-20T05:47:59;30.10;99.30
58469;DHT22;44257;44.804;10.220;2023-07-20T05:50:24;30.40;97.40
58469;DHT22;44257;44.804;10.220;2023-07-20T05:52:54;30.60;96.50
58469;DHT22;44257;44.804;10.220;2023-07-20T05:55:20;31.00;96.50
58469;DHT22;44257;44.804;10.220;2023-07-20T05:57:46;31.10;94.20
58469;DHT22;44257;44.804;10.220;2023-07-20T06:00:13;31.10;93.70
58469;DHT22;44257;44.804;10.220;2023-07-20T06:02:41;31.10;93.40
58469;DHT22;44257;44.804;10.220;2023-07-20T06:05:08;31.00;93.00
58469;DHT22;44257;44.804;10.220;2023-07-20T06:07:36;31.10;93.00
58469;DHT22;44257;44.804;10.220;2023-07-20T06:10:02;31.10;93.00
58469;DHT22;44257;44.804;10.220;2023-07-20T06:12:28;31.30;94.10
58469;DHT22;44257;44.804;10.220;2023-07-20T06:14:54;31.60;93.10
58469;DHT22;44257;44.804;10.220;2023-07-20T06:17:20;31.80;93.10
58469;DHT22;44257;44.804;10.220;2023-07-20T06:19:46;31.90;91.40
58469;DHT22;44257;44.804;10.220;2023-07-20T06:22:12;31.90;90.90
58469;DHT22;44257;44.804;10.220;2023-07-20T06:24:38;31.80;92.10
58469;DHT22;44257;44.804;10.220;2023-07-20T06:27:04;32.00;91.80
58469;DHT22;44257;44.804;10.220;2023-07-20T06:29:31;32.40;91.90
58469;DHT22;44257;44.804;10.220;2023-07-20T06:31:57;32.70;91.60
58469;DHT22;44257;44.804;10.220;2023-07-20T06:34:22;33.00;90.50
58469;DHT22;44257;44.804;10.220;2023-07-20T06:36:49;33.30;88.80
58469;DHT22;44257;44.804;10.220;2023-07-20T06:39:15;33.40;87.10
58469;DHT22;44257;44.804;10.220;2023-07-20T06:41:40;33.20;86.60
58469;DHT22;44257;44.804;10.220;2023-07-20T06:44:07;32.70;88.00
58469;DHT22;44257;44.804;10.220;2023-07-20T06:46:33;32.30;88.90
58469;DHT22;44257;44.804;10.220;2023-07-20T06:48:59;32.00;89.10
58469;DHT22;44257;44.804;10.220;2023-07-20T06:51:25;31.70;90.50
58469;DHT22;44257;44.804;10.220;2023-07-20T06:53:51;31.50;90.90
58469;DHT22;44257;44.804;10.220;2023-07-20T06:56:16;31.20;91.00
58469;DHT22;44257;44.804;10.220;2023-07-20T06:58:42;30.80;91.60
58469;DHT22;44257;44.804;10.220;2023-07-20T07:01:08;30.60;92.30
58469;DHT22;44257;44.804;10.220;2023-07-20T07:03:34;30.60;93.70
58469;DHT22;44257;44.804;10.220;2023-07-20T07:06:00;30.60;93.80
58469;DHT22;44257;44.804;10.220;2023-07-20T07:08:26;30.80;93.50
58469;DHT22;44257;44.804;10.220;2023-07-20T07:10:52;30.90;92.70
58469;DHT22;44257;44.804;10.220;2023-07-20T07:13:19;30.90;92.70
58469;DHT22;44257;44.804;10.220;2023-07-20T07:15:45;30.70;93.70
58469;DHT22;44257;44.804;10.220;2023-07-20T07:18:11;30.70;92.70
58469;DHT22;44257;44.804;10.220;2023-07-20T07:20:37;30.60;92.60
58469;DHT22;44257;44.804;10.220;2023-07-20T07:23:03;30.50;92.80
58469;DHT22;44257;44.804;10.220;2023-07-20T07:25:29;30.50;91.70
58469;DHT22;44257;44.804;10.220;2023-07-20T07:27:56;30.40;92.60
58469;DHT22;44257;44.804;10.220;2023-07-20T07:30:22;30.50;92.60
58469;DHT22;44257;44.804;10.220;2023-07-20T07:32:48;30.70;93.50
58469;DHT22;44257;44.804;10.220;2023-07-20T07:35:14;30.80;92.00
58469;DHT22;44257;44.804;10.220;2023-07-20T07:37:41;30.70;92.40
58469;DHT22;44257;44.804;10.220;2023-07-20T07:40:07;30.80;93.70
58469;DHT22;44257;44.804;10.220;2023-07-20T07:42:34;30.90;92.30
58469;DHT22;44257;44.804;10.220;2023-07-20T07:45:00;30.90;91.40
58469;DHT22;44257;44.804;10.220;2023-07-20T07:47:25;30.90;91.30
58469;DHT22;44257;44.804;10.220;2023-07-20T07:49:51;30.60;91.20
58469;DHT22;44257;44.804;10.220;2023-07-20T07:52:17;30.40;93.00
58469;DHT22;44257;44.804;10.220;2023-07-20T07:54:44;30.50;93.40
58469;DHT22;44257;44.804;10.220;2023-07-20T07:57:09;30.70;92.40
58469;DHT22;44257;44.804;10.220;2023-07-20T07:59:35;30.90;91.60
58469;DHT22;44257;44.804;10.220;2023-07-20T08:02:04;30.90;92.40
58469;DHT22;44257;44.804;10.220;2023-07-20T08:04:30;31.10;92.60
58469;DHT22;44257;44.804;10.220;2023-07-20T08:06:56;31.20;92.50
58469;DHT22;44257;44.804;10.220;2023-07-20T08:09:22;31.20;90.90
58469;DHT22;44257;44.804;10.220;2023-07-20T08:11:48;31.20;91.60
58469;DHT22;44257;44.804;10.220;2023-07-20T08:14:15;31.40;91.60
58469;DHT22;44257;44.804;10.220;2023-07-20T08:16:41;31.50;90.80
58469;DHT22;44257;44.804;10.220;2023-07-20T08:19:07;31.70;90.60
58469;DHT22;44257;44.804;10.220;2023-07-20T08:21:33;31.80;89.40
58469;DHT22;44257;44.804;10.220;2023-07-20T08:23:59;31.60;90.10
58469;DHT22;44257;44.804;10.220;2023-07-20T08:26:24;31.40;90.30
58469;DHT22;44257;44.804;10.220;2023-07-20T08:28:50;31.40;90.00
58469;DHT22;44257;44.804;10.220;2023-07-20T08:31:16;31.40;90.40
58469;DHT22;44257;44.804;10.220;2023-07-20T08:33:42;31.50;90.10
58469;DHT22;44257;44.804;10.220;2023-07-20T08:36:08;31.70;90.00
58469;DHT22;44257;44.804;10.220;2023-07-20T08:38:34;31.80;90.60
58469;DHT22;44257;44.804;10.220;2023-07-20T08:41:00;31.90;90.00
58469;DHT22;44257;44.804;10.220;2023-07-20T08:43:28;32.10;88.30
58469;DHT22;44257;44.804;10.220;2023-07-20T08:45:55;32.00;88.80
58469;DHT22;44257;44.804;10.220;2023-07-20T08:48:22;32.00;87.60
58469;DHT22;44257;44.804;10.220;2023-07-20T08:50:52;31.90;87.50
58469;DHT22;44257;44.804;10.220;2023-07-20T08:53:21;31.80;90.40
58469;DHT22;44257;44.804;10.220;2023-07-20T08:55:50;31.90;88.50
58469;DHT22;44257;44.804;10.220;2023-07-20T08:58:17;32.10;89.60
58469;DHT22;44257;44.804;10.220;2023-07-20T09:00:44;32.20;86.80
58469;DHT22;44257;44.804;10.220;2023-07-20T09:03:11;32.10;86.50
58469;DHT22;44257;44.804;10.220;2023-07-20T09:05:37;31.90;86.20
58469;DHT22;44257;44.804;10.220;2023-07-20T09:08:04;31.80;86.10
58469;DHT22;44257;44.804;10.220;2023-07-20T09:10:30;31.80;88.40
58469;DHT22;44257;44.804;10.220;2023-07-20T09:12:56;32.10;89.50
58469;DHT22;44257;44.804;10.220;2023-07-20T09:15:23;32.40;89.30
58469;DHT22;44257;44.804;10.220;2023-07-20T09:17:50;32.80;87.20
58469;DHT22;44257;44.804;10.220;2023-07-20T09:20:17;33.00;84.60
58469;DHT22;44257;44.804;10.220;2023-07-20T09:22:44;32.90;85.40
58469;DHT22;44257;44.804;10.220;2023-07-20T09:25:14;32.80;84.30
58469;DHT22;44257;44.804;10.220;2023-07-20T09:27:45;32.80;85.80
58469;DHT22;44257;44.804;10.220;2023-07-20T09:30:13;33.00;86.60
58469;DHT22;44257;44.804;10.220;2023-07-20T09:35:16;33.30;85.00
58469;DHT22;44257;44.804;10.220;2023-07-20T09:38:01;33.40;84.40
58469;DHT22;44257;44.804;10.220;2023-07-20T09:40:28;33.50;83.20
58469;DHT22;44257;44.804;10.220;2023-07-20T09:42:54;33.60;83.50
58469;DHT22;44257;44.804;10.220;2023-07-20T09:45:50;33.60;81.50
58469;DHT22;44257;44.804;10.220;2023-07-20T09:48:15;33.70;82.30
58469;DHT22;44257;44.804;10.220;2023-07-20T09:50:49;33.90;82.90
58469;DHT22;44257;44.804;10.220;2023-07-20T09:53:19;34.00;81.20
58469;DHT22;44257;44.804;10.220;2023-07-20T09:55:46;34.10;81.30
58469;DHT22;44257;44.804;10.220;2023-07-20T09:58:13;34.10;82.40
58469;DHT22;44257;44.804;10.220;2023-07-20T10:00:40;34.20;80.50
58469;DHT22;44257;44.804;10.220;2023-07-20T10:03:10;34.20;80.70
58469;DHT22;44257;44.804;10.220;2023-07-20T10:05:43;34.10;79.80
58469;DHT22;44257;44.804;10.220;2023-07-20T10:08:12;34.00;80.40
58469;DHT22;44257;44.804;10.220;2023-07-20T10:10:41;34.20;83.60
58469;DHT22;44257;44.804;10.220;2023-07-20T10:13:15;34.40;80.60
58469;DHT22;44257;44.804;10.220;2023-07-20T10:16:15;34.70;78.30
58469;DHT22;44257;44.804;10.220;2023-07-20T10:18:47;34.70;76.50
58469;DHT22;44257;44.804;10.220;2023-07-20T10:21:17;34.40;79.00
58469;DHT22;44257;44.804;10.220;2023-07-20T10:23:45;34.50;80.20
58469;DHT22;44257;44.804;10.220;2023-07-20T10:26:11;34.60;78.10
58469;DHT22;44257;44.804;10.220;2023-07-20T10:28:38;34.30;78.60
58469;DHT22;44257;44.804;10.220;2023-07-20T10:31:07;34.40;83.00
58469;DHT22;44257;44.804;10.220;2023-07-20T10:33:34;34.60;79.90
58469;DHT22;44257;44.804;10.220;2023-07-20T10:36:04;34.90;80.60
58469;DHT22;44257;44.804;10.220;2023-07-20T10:38:40;35.10;77.70
58469;DHT22;44257;44.804;10.220;2023-07-20T10:41:34;35.30;76.10
58469;DHT22;44257;44.804;10.220;2023-07-20T10:44:05;35.20;77.20
58469;DHT22;44257;44.804;10.220;2023-07-20T10:46:41;35.20;76.20
58469;DHT22;44257;44.804;10.220;2023-07-20T10:49:09;35.30;77.00
58469;DHT22;44257;44.804;10.220;2023-07-20T10:51:44;35.50;76.00
58469;DHT22;44257;44.804;10.220;2023-07-20T10:56:57;35.50;76.50
58469;DHT22;44257;44.804;10.220;2023-07-20T11:01:49;36.00;75.30
58469;DHT22;44257;44.804;10.220;2023-07-20T11:04:16;36.00;74.80
58469;DHT22;44257;44.804;10.220;2023-07-20T11:06:44;35.60;75.70
58469;DHT22;44257;44.804;10.220;2023-07-20T11:09:12;35.20;77.40
58469;DHT22;44257;44.804;10.220;2023-07-20T11:11:46;34.80;77.00
58469;DHT22;44257;44.804;10.220;2023-07-20T11:14:23;34.40;77.50
58469;DHT22;44257;44.804;10.220;2023-07-20T11:16:50;34.20;80.90
58469;DHT22;44257;44.804;10.220;2023-07-20T11:19:22;34.40;80.70
58469;DHT22;44257;44.804;10.220;2023-07-20T11:21:55;34.60;79.00
58469;DHT22;44257;44.804;10.220;2023-07-20T11:24:22;34.90;78.50
58469;DHT22;44257;44.804;10.220;2023-07-20T11:26:54;35.00;77.90
58469;DHT22;44257;44.804;10.220;2023-07-20T11:29:22;35.00;75.70
58469;DHT22;44257;44.804;10.220;2023-07-20T11:31:49;35.10;75.80
58469;DHT22;44257;44.804;10.220;2023-07-20T11:34:19;35.30;76.80
58469;DHT22;44257;44.804;10.220;2023-07-20T11:36:47;35.40;75.00
58469;DHT22;44257;44.804;10.220;2023-07-20T11:39:18;35.20;75.90
58469;DHT22;44257;44.804;10.220;2023-07-20T11:41:52;35.30;76.10
58469;DHT22;44257;44.804;10.220;2023-07-20T11:44:21;35.10;75.10
58469;DHT22;44257;44.804;10.220;2023-07-20T11:47:12;35.00;75.20
58469;DHT22;44257;44.804;10.220;2023-07-20T11:49:42;35.00;75.80
58469;DHT22;44257;44.804;10.220;2023-07-20T11:52:10;35.10;76.40
58469;DHT22;44257;44.804;10.220;2023-07-20T11:54:38;35.10;76.90
58469;DHT22;44257;44.804;10.220;2023-07-20T11:57:05;35.20;75.80
58469;DHT22;44257;44.804;10.220;2023-07-20T11:59:31;35.40;77.40
58469;DHT22;44257;44.804;10.220;2023-07-20T12:02:02;35.60;76.20
58469;DHT22;44257;44.804;10.220;2023-07-20T12:04:30;35.80;74.50
58469;DHT22;44257;44.804;10.220;2023-07-20T12:06:56;35.50;74.70
58469;DHT22;44257;44.804;10.220;2023-07-20T12:09:22;35.20;77.10
58469;DHT22;44257;44.804;10.220;2023-07-20T12:11:49;35.20;76.80
58469;DHT22;44257;44.804;10.220;2023-07-20T12:14:16;35.20;76.10
58469;DHT22;44257;44.804;10.220;2023-07-20T12:16:42;34.90;76.10
58469;DHT22;44257;44.804;10.220;2023-07-20T12:19:12;34.80;77.50
58469;DHT22;44257;44.804;10.220;2023-07-20T12:21:40;34.90;79.80
58469;DHT22;44257;44.804;10.220;2023-07-20T12:24:07;35.20;77.20
58469;DHT22;44257;44.804;10.220;2023-07-20T12:26:34;35.40;76.80
58469;DHT22;44257;44.804;10.220;2023-07-20T12:29:00;35.70;78.50
58469;DHT22;44257;44.804;10.220;2023-07-20T12:31:27;36.00;76.50
58469;DHT22;44257;44.804;10.220;2023-07-20T12:33:54;36.20;75.10
58469;DHT22;44257;44.804;10.220;2023-07-20T12:36:23;36.40;75.30
58469;DHT22;44257;44.804;10.220;2023-07-20T12:38:49;36.40;74.70
58469;DHT22;44257;44.804;10.220;2023-07-20T12:41:15;36.50;73.50
58469;DHT22;44257;44.804;10.220;2023-07-20T12:43:41;36.50;76.00
58469;DHT22;44257;44.804;10.220;2023-07-20T12:46:08;36.70;73.90
58469;DHT22;44257;44.804;10.220;2023-07-20T12:48:34;36.80;73.60
58469;DHT22;44257;44.804;10.220;2023-07-20T12:51:02;36.90;73.60
58469;DHT22;44257;44.804;10.220;2023-07-20T12:53:31;37.10;74.50
58469;DHT22;44257;44.804;10.220;2023-07-20T12:55:57;37.30;73.30
58469;DHT22;44257;44.804;10.220;2023-07-20T12:58:23;37.30;73.50
58469;DHT22;44257;44.804;10.220;2023-07-20T13:00:49;37.30;73.40
58469;DHT22;44257;44.804;10.220;2023-07-20T13:03:15;37.30;74.20
58469;DHT22;44257;44.804;10.220;2023-07-20T13:05:42;37.40;70.40
58469;DHT22;44257;44.804;10.220;2023-07-20T13:08:07;37.20;72.60
58469;DHT22;44257;44.804;10.220;2023-07-20T13:10:35;37.10;71.10
58469;DHT22;44257;44.804;10.220;2023-07-20T13:13:00;36.90;71.50
58469;DHT22;44257;44.804;10.220;2023-07-20T13:15:32;36.80;71.90
58469;DHT22;44257;44.804;10.220;2023-07-20T13:17:58;36.80;73.90
58469;DHT22;44257;44.804;10.220;2023-07-20T13:20:25;36.80;72.30
58469;DHT22;44257;44.804;10.220;2023-07-20T13:22:51;36.70;72.50
58469;DHT22;44257;44.804;10.220;2023-07-20T13:25:17;36.80;73.50
58469;DHT22;44257;44.804;10.220;2023-07-20T13:27:44;36.90;74.20
58469;DHT22;44257;44.804;10.220;2023-07-20T13:30:10;37.00;73.40
58469;DHT22;44257;44.804;10.220;2023-07-20T13:32:43;37.10;73.80
58469;DHT22;44257;44.804;10.220;2023-07-20T13:35:09;37.30;71.60
58469;DHT22;44257;44.804;10.220;2023-07-20T13:37:35;37.40;72.10
58469;DHT22;44257;44.804;10.220;2023-07-20T13:40:01;37.40;73.00
58469;DHT22;44257;44.804;10.220;2023-07-20T13:42:30;37.60;75.80
58469;DHT22;44257;44.804;10.220;2023-07-20T13:44:56;37.90;73.50
58469;DHT22;44257;44.804;10.220;2023-07-20T13:47:22;38.10;73.30
58469;DHT22;44257;44.804;10.220;2023-07-20T13:49:48;38.30;71.20
58469;DHT22;44257;44.804;10.220;2023-07-20T13:52:14;38.20;73.00
58469;DHT22;44257;44.804;10.220;2023-07-20T13:54:39;38.20;71.90
58469;DHT22;44257;44.804;10.220;2023-07-20T13:57:05;38.10;71.80
58469;DHT22;44257;44.804;10.220;2023-07-20T13:59:31;38.10;71.50
58469;DHT22;44257;44.804;10.220;2023-07-20T14:01:57;38.00;72.30
58469;DHT22;44257;44.804;10.220;2023-07-20T14:04:23;37.90;71.90
58469;DHT22;44257;44.804;10.220;2023-07-20T14:06:49;37.90;72.80
58469;DHT22;44257;44.804;10.220;2023-07-20T14:09:15;37.90;69.90
58469;DHT22;44257;44.804;10.220;2023-07-20T14:11:41;37.70;71.40
58469;DHT22;44257;44.804;10.220;2023-07-20T14:14:07;37.70;71.30
58469;DHT22;44257;44.804;10.220;2023-07-20T14:16:33;37.80;69.60
58469;DHT22;44257;44.804;10.220;2023-07-20T14:18:59;37.70;69.30
58469;DHT22;44257;44.804;10.220;2023-07-20T14:21:24;37.60;69.30
58469;DHT22;44257;44.804;10.220;2023-07-20T14:23:52;37.50;69.70
58469;DHT22;44257;44.804;10.220;2023-07-20T14:26:21;37.50;71.80
58469;DHT22;44257;44.804;10.220;2023-07-20T14:28:47;37.60;71.60
58469;DHT22;44257;44.804;10.220;2023-07-20T14:31:12;37.60;71.70
58469;DHT22;44257;44.804;10.220;2023-07-20T14:33:39;37.70;70.90
58469;DHT22;44257;44.804;10.220;2023-07-20T14:36:05;37.80;70.10
58469;DHT22;44257;44.804;10.220;2023-07-20T14:38:33;37.90;70.20
58469;DHT22;44257;44.804;10.220;2023-07-20T14:40:59;38.00;70.60
58469;DHT22;44257;44.804;10.220;2023-07-20T14:43:25;37.90;68.90
58469;DHT22;44257;44.804;10.220;2023-07-20T14:45:51;38.00;70.20
58469;DHT22;44257;44.804;10.220;2023-07-20T14:48:17;38.10;68.10
58469;DHT22;44257;44.804;10.220;2023-07-20T14:50:43;38.10;68.70
58469;DHT22;44257;44.804;10.220;2023-07-20T14:53:12;38.20;68.10
58469;DHT22;44257;44.804;10.220;2023-07-20T14:55:38;38.10;68.70
58469;DHT22;44257;44.804;10.220;2023-07-20T14:58:04;38.00;68.50
58469;DHT22;44257;44.804;10.220;2023-07-20T15:00:30;38.00;68.80
58469;DHT22;44257;44.804;10.220;2023-07-20T15:02:56;38.00;70.00
58469;DHT22;44257;44.804;10.220;2023-07-20T15:05:22;38.00;70.80
58469;DHT22;44257;44.804;10.220;2023-07-20T15:07:50;38.10;69.00
58469;DHT22;44257;44.804;10.220;2023-07-20T15:10:16;38.10;67.90
58469;DHT22;44257;44.804;10.220;2023-07-20T15:12:42;37.90;68.60
58469;DHT22;44257;44.804;10.220;2023-07-20T15:15:09;37.90;69.80
58469;DHT22;44257;44.804;10.220;2023-07-20T15:17:36;37.90;71.00
58469;DHT22;44257;44.804;10.220;2023-07-20T15:20:03;38.20;70.60
58469;DHT22;44257;44.804;10.220;2023-07-20T15:22:33;38.20;67.20
58469;DHT22;44257;44.804;10.220;2023-07-20T15:24:59;38.10;69.20
58469;DHT22;44257;44.804;10.220;2023-07-20T15:27:26;38.00;69.90
58469;DHT22;44257;44.804;10.220;2023-07-20T15:29:52;38.10;69.30
58469;DHT22;44257;44.804;10.220;2023-07-20T15:32:18;38.10;71.00